Time;durP1;ratioP1;P1;durP2;ratioP2;P2;SDS_P1;SDS_P2;PMS_P1;PMS_P2;Temp;Humidity;BMP_temperature;BMP_pressure;BME280_temperature;BME280_humidity;BME280_pressure;Samples;Min_cycle;Max_cycle;Signal;HPM_P1;HPM_P2
2024/02/09 00:00:19;;;;;;;21.57;13.60;;;7.20;99.90;;;;;;5034745;28;20044;-76
2024/02/09 00:02:45;;;;;;;23.10;13.80;;;7.20;99.90;;;;;;5033512;28;20105;-76
2024/02/09 00:05:12;;;;;;;20.03;12.90;;;7.30;99.90;;;;;;5034510;28;20021;-77
2024/02/09 00:07:38;;;;;;;21.63;13.53;;;7.30;99.90;;;;;;5033317;28;20018;-77
2024/02/09 00:10:07;;;;;;;20.27;13.03;;;7.30;99.90;;;;;;5034876;28;20021;-77
2024/02/09 00:12:35;;;;;;;21.63;12.77;;;7.40;99.90;;;;;;5033361;28;20048;-77
2024/02/09 00:15:06;;;;;;;20.53;13.20;;;7.40;99.90;;;;;;5033121;28;20474;-77
2024/02/09 00:17:32;;;;;;;24.33;14.90;;;7.40;99.90;;;;;;5034511;28;20104;-77
2024/02/09 00:19:58;;;;;;;22.47;13.80;;;7.40;99.90;;;;;;5034431;28;20025;-77
2024/02/09 00:22:25;;;;;;;23.27;13.20;;;7.50;99.90;;;;;;5033096;28;20031;-77
2024/02/09 00:24:50;;;;;;;23.60;14.30;;;7.50;99.90;;;;;;5033137;28;20060;-78
2024/02/09 00:27:16;;;;;;;27.50;14.50;;;7.50;99.90;;;;;;5032771;28;20103;-76
2024/02/09 00:29:42;;;;;;;25.10;14.30;;;7.60;99.90;;;;;;5033038;28;20492;-77
2024/02/09 00:32:08;;;;;;;25.90;14.13;;;7.60;99.90;;;;;;5034218;28;20079;-76
2024/02/09 00:34:34;;;;;;;24.53;13.33;;;7.60;99.90;;;;;;5034128;28;20417;-76
2024/02/09 00:37:03;;;;;;;22.57;13.07;;;7.60;99.90;;;;;;5032897;28;20021;-76
2024/02/09 00:39:33;;;;;;;17.97;10.87;;;7.70;99.90;;;;;;5034384;28;20021;-75
2024/02/09 00:42:01;;;;;;;20.50;13.03;;;7.80;99.90;;;;;;5034366;28;20025;-76
2024/02/09 00:44:26;;;;;;;20.33;13.67;;;7.80;99.90;;;;;;5033472;28;20504;-76
2024/02/09 00:46:52;;;;;;;22.37;12.53;;;7.80;99.90;;;;;;5033679;28;20056;-76
2024/02/09 00:49:18;;;;;;;26.60;13.53;;;7.80;99.90;;;;;;5032508;28;20028;-76
2024/02/09 00:51:44;;;;;;;21.03;12.57;;;7.80;99.90;;;;;;5032825;28;20381;-76
2024/02/09 00:54:14;;;;;;;21.57;12.27;;;7.90;99.90;;;;;;5032577;28;20059;-76
2024/02/09 00:56:40;;;;;;;19.83;11.20;;;7.90;99.90;;;;;;5033727;28;20034;-76
2024/02/09 00:59:05;;;;;;;18.10;10.87;;;7.90;99.90;;;;;;5032521;28;20029;-76
2024/02/09 01:01:32;;;;;;;19.03;10.50;;;8.00;99.90;;;;;;5033468;28;20359;-76
2024/02/09 01:04:00;;;;;;;19.30;9.40;;;8.00;99.90;;;;;;5033622;28;20024;-75
2024/02/09 01:06:26;;;;;;;20.67;8.33;;;8.10;99.90;;;;;;5032194;28;20132;-76
2024/02/09 01:08:52;;;;;;;14.93;6.53;;;8.20;99.90;;;;;;5033597;28;20037;-76
2024/02/09 01:11:18;;;;;;;13.43;6.13;;;8.40;99.90;;;;;;5032021;28;20022;-77
2024/02/09 02:46:51;;;;;;;16.60;4.40;;;10.00;99.90;;;;;;5032661;28;20025;-84
2024/02/09 03:05:42;;;;;;;16.27;5.45;;;10.00;99.90;;;;;;5039341;28;20412;-84
2024/02/09 03:08:08;;;;;;;13.60;4.47;;;10.00;99.90;;;;;;5032774;28;20049;-84
2024/02/09 03:10:35;;;;;;;10.83;4.53;;;10.10;99.90;;;;;;5034744;28;20029;-84
2024/02/09 03:13:01;;;;;;;8.80;3.88;;;10.10;99.90;;;;;;5034762;28;20076;-85
2024/02/09 03:15:27;;;;;;;16.58;4.75;;;10.00;99.90;;;;;;5036173;28;20025;-84
2024/02/09 03:17:53;;;;;;;16.60;4.40;;;10.00;99.90;;;;;;5035883;28;20071;-84
2024/02/09 03:20:19;;;;;;;13.63;4.83;;;10.10;99.90;;;;;;5036488;28;20026;-83
2024/02/09 03:22:46;;;;;;;10.00;4.20;;;10.10;99.90;;;;;;5035845;28;20034;-84
2024/02/09 03:25:13;;;;;;;11.65;3.38;;;10.10;99.90;;;;;;5034519;28;20029;-84
2024/02/09 03:27:40;;;;;;;13.98;4.30;;;10.10;99.90;;;;;;5035490;28;20017;-84
2024/02/09 03:30:08;;;;;;;12.45;4.07;;;10.10;99.90;;;;;;5036135;28;20104;-86
2024/02/09 03:32:35;;;;;;;13.43;4.70;;;10.10;99.90;;;;;;5034808;28;20025;-84
2024/02/09 03:35:03;;;;;;;17.75;4.70;;;10.10;99.90;;;;;;5036230;28;20028;-84
2024/02/09 03:37:32;;;;;;;10.97;4.20;;;10.10;99.90;;;;;;5035036;28;20021;-87
2024/02/09 03:40:00;;;;;;;11.98;4.28;;;10.10;99.90;;;;;;5035895;28;20040;-84
2024/02/09 03:42:25;;;;;;;12.68;3.97;;;10.10;99.90;;;;;;5034596;28;20026;-85
2024/02/09 03:44:54;;;;;;;12.60;3.75;;;10.10;99.90;;;;;;5035466;28;20204;-84
2024/02/09 03:47:24;;;;;;;12.90;4.47;;;10.10;99.90;;;;;;5034098;28;20562;-84
2024/02/09 03:49:53;;;;;;;11.52;4.50;;;10.10;99.90;;;;;;5036433;28;20033;-85
2024/02/09 03:52:23;;;;;;;10.23;4.45;;;10.10;99.90;;;;;;5037776;28;20057;-85
2024/02/09 03:54:51;;;;;;;12.02;4.03;;;10.10;99.90;;;;;;5040851;28;20054;-83
2024/02/09 03:57:25;;;;;;;9.13;3.80;;;10.10;99.90;;;;;;5043690;28;20064;-82
2024/02/09 03:59:51;;;;;;;9.93;3.78;;;10.10;99.90;;;;;;5041622;28;20025;-86
2024/02/09 04:02:17;;;;;;;17.15;4.68;;;10.10;99.90;;;;;;5037762;28;20025;-84
2024/02/09 04:04:44;;;;;;;11.38;3.22;;;10.10;99.90;;;;;;5034678;28;20026;-84
2024/02/09 04:07:10;;;;;;;11.88;5.00;;;10.10;99.90;;;;;;5034520;28;20433;-87
2024/02/09 04:09:37;;;;;;;8.02;3.03;;;10.10;99.90;;;;;;5033994;28;20117;-85
2024/02/09 04:12:03;;;;;;;15.13;5.00;;;10.10;99.90;;;;;;5033704;28;20017;-83
2024/02/09 04:14:29;;;;;;;10.30;4.07;;;10.10;99.90;;;;;;5035419;28;20347;-85
2024/02/09 04:16:56;;;;;;;10.18;4.13;;;10.10;99.90;;;;;;5034815;28;20022;-85
2024/02/09 04:19:23;;;;;;;12.30;3.60;;;10.10;99.90;;;;;;5024119;28;20018;-82
2024/02/09 04:21:48;;;;;;;9.10;3.50;;;10.20;99.90;;;;;;5014006;28;20033;-84
2024/02/09 04:24:24;;;;;;;10.25;3.45;;;10.10;99.90;;;;;;5015110;28;20427;-85
2024/02/09 04:26:54;;;;;;;11.02;3.50;;;10.10;99.90;;;;;;5013709;28;20091;-84
2024/02/09 04:29:23;;;;;;;12.13;3.38;;;10.20;99.90;;;;;;5014856;28;20109;-85
2024/02/09 04:31:52;;;;;;;10.65;3.38;;;10.10;99.90;;;;;;5014916;28;20493;-82
2024/02/09 04:34:18;;;;;;;7.78;2.97;;;10.20;99.90;;;;;;5014742;28;20026;-84
2024/02/09 04:36:46;;;;;;;12.60;3.35;;;10.20;99.90;;;;;;5013979;28;20018;-87
2024/02/09 04:39:12;;;;;;;9.15;3.00;;;10.20;99.90;;;;;;5014784;28;20104;-85
2024/02/09 04:41:39;;;;;;;12.47;3.37;;;10.20;99.90;;;;;;5013476;28;20394;-83
2024/02/09 04:44:05;;;;;;;8.88;3.22;;;10.20;99.90;;;;;;5013870;28;20045;-85
2024/02/09 04:46:32;;;;;;;8.50;2.45;;;10.20;99.90;;;;;;5014355;28;20053;-86
2024/02/09 04:49:08;;;;;;;8.63;3.42;;;10.20;99.90;;;;;;5013388;28;20044;-87
2024/02/09 04:51:33;;;;;;;7.95;2.88;;;10.20;99.90;;;;;;5014905;28;20030;-85
2024/02/09 04:54:00;;;;;;;6.63;2.38;;;10.20;99.90;;;;;;5014151;28;20109;-85
2024/02/09 04:56:32;;;;;;;10.23;3.55;;;10.10;99.90;;;;;;5014496;28;20052;-85
2024/02/09 04:59:07;;;;;;;9.55;3.28;;;10.20;99.90;;;;;;5014018;28;20073;-86
2024/02/09 05:01:37;;;;;;;9.48;3.30;;;10.20;99.90;;;;;;5020484;28;20025;-86
2024/02/09 05:04:03;;;;;;;7.47;2.93;;;10.10;99.90;;;;;;5016335;28;20418;-85
2024/02/09 05:06:29;;;;;;;7.40;2.93;;;10.20;99.90;;;;;;5033863;28;20017;-85
2024/02/09 05:08:57;;;;;;;7.68;2.78;;;10.10;99.90;;;;;;5032498;28;20075;-85
2024/02/09 05:11:28;;;;;;;9.00;3.87;;;10.10;99.90;;;;;;5033744;28;20474;-84
2024/02/09 05:13:54;;;;;;;9.00;2.93;;;10.10;99.90;;;;;;5034013;28;20025;-83
2024/02/09 05:16:20;;;;;;;7.97;2.90;;;10.10;99.90;;;;;;5032618;28;20057;-83
2024/02/09 05:18:47;;;;;;;6.80;2.53;;;10.10;99.90;;;;;;5033672;28;20493;-84
2024/02/09 05:21:13;;;;;;;7.18;2.90;;;10.10;99.90;;;;;;5033726;28;20026;-84
2024/02/09 05:23:39;;;;;;;6.13;2.63;;;10.10;99.90;;;;;;5033144;28;20037;-85
2024/02/09 05:26:08;;;;;;;5.78;2.25;;;10.10;99.90;;;;;;5033337;28;20025;-83
2024/02/09 05:28:38;;;;;;;7.10;2.93;;;10.10;99.90;;;;;;5033651;28;20017;-85
2024/02/09 05:31:05;;;;;;;6.20;2.60;;;10.10;99.90;;;;;;5033145;28;20115;-84
2024/02/09 05:33:34;;;;;;;7.82;2.75;;;10.10;99.90;;;;;;5033320;28;20028;-84
2024/02/09 05:36:01;;;;;;;8.83;2.60;;;10.10;99.90;;;;;;5034069;28;20023;-83
2024/02/09 05:38:27;;;;;;;6.00;2.10;;;10.10;99.90;;;;;;5033182;28;20124;-83
2024/02/09 05:40:53;;;;;;;6.55;3.28;;;10.10;99.90;;;;;;5033397;28;20017;-84
2024/02/09 05:43:19;;;;;;;6.90;2.73;;;10.20;99.90;;;;;;5033266;28;20024;-83
2024/02/09 05:45:48;;;;;;;9.03;2.97;;;10.20;99.90;;;;;;5032282;28;20022;-83
2024/02/09 05:48:14;;;;;;;7.65;2.70;;;10.20;99.90;;;;;;5032349;28;20505;-83
2024/02/09 05:50:40;;;;;;;8.87;3.07;;;10.20;99.90;;;;;;5032825;28;20095;-83
2024/02/09 05:53:07;;;;;;;7.80;2.72;;;10.20;99.90;;;;;;5031600;28;20025;-83
2024/02/09 05:55:34;;;;;;;8.30;2.75;;;10.20;99.90;;;;;;5032975;28;20018;-83
2024/02/09 05:58:00;;;;;;;12.20;2.80;;;10.20;99.90;;;;;;5032827;28;20057;-83
2024/02/09 06:00:26;;;;;;;7.40;2.88;;;10.20;99.90;;;;;;5032752;28;20104;-83
2024/02/09 06:02:53;;;;;;;8.10;2.58;;;10.20;99.90;;;;;;5031628;28;20064;-83
2024/02/09 06:05:19;;;;;;;8.32;2.53;;;10.20;99.90;;;;;;5032962;28;20121;-83
2024/02/09 06:07:47;;;;;;;6.13;2.15;;;10.20;99.90;;;;;;5032845;28;20025;-85
2024/02/09 06:10:13;;;;;;;6.50;1.90;;;10.20;99.90;;;;;;5031846;28;20108;-83
2024/02/09 06:12:38;;;;;;;6.30;2.83;;;10.20;99.90;;;;;;5033237;28;20537;-85
2024/02/09 06:15:10;;;;;;;8.05;2.67;;;10.20;99.90;;;;;;5033234;28;20030;-83
2024/02/09 06:17:38;;;;;;;7.18;2.60;;;10.30;99.90;;;;;;5033142;28;20555;-84
2024/02/09 06:20:10;;;;;;;8.80;2.75;;;10.30;99.90;;;;;;5033112;28;20104;-84
2024/02/09 06:22:36;;;;;;;8.93;2.95;;;10.30;99.90;;;;;;5031571;28;20025;-85
2024/02/09 06:25:02;;;;;;;5.97;1.90;;;10.30;99.90;;;;;;5031777;28;20026;-84
2024/02/09 06:27:28;;;;;;;7.28;2.47;;;10.30;99.90;;;;;;5032659;28;20025;-86
2024/02/09 06:29:54;;;;;;;14.50;2.67;;;10.30;99.90;;;;;;5025064;28;20534;-85
2024/02/09 06:32:23;;;;;;;9.80;2.40;;;10.30;99.90;;;;;;5013437;28;20022;-84
2024/02/09 06:34:49;;;;;;;7.13;2.67;;;10.30;99.90;;;;;;5027994;28;20057;-83
2024/02/09 06:37:18;;;;;;;5.75;1.60;;;10.30;99.90;;;;;;5018141;28;20103;-83
2024/02/09 06:39:46;;;;;;;6.22;2.08;;;10.30;99.90;;;;;;5016938;28;20062;-82
2024/02/09 06:42:12;;;;;;;8.55;1.85;;;10.40;99.90;;;;;;5011912;28;20026;-83
2024/02/09 06:44:42;;;;;;;5.70;2.10;;;10.40;99.90;;;;;;5016734;28;20048;-85
2024/02/09 06:47:10;;;;;;;4.53;1.83;;;10.40;99.90;;;;;;5016454;28;20018;-83
2024/02/09 06:49:37;;;;;;;6.97;2.28;;;10.40;99.90;;;;;;5015630;28;20018;-82
2024/02/09 06:52:04;;;;;;;7.90;2.28;;;10.40;99.90;;;;;;5014760;28;20032;-85
2024/02/09 06:54:30;;;;;;;6.10;1.85;;;10.40;99.90;;;;;;5024692;28;20025;-85
2024/02/09 06:56:55;;;;;;;8.77;2.15;;;10.40;99.90;;;;;;5019753;28;20104;-83
2024/02/09 06:59:23;;;;;;;5.45;1.55;;;10.40;99.90;;;;;;5028650;28;20041;-83
2024/02/09 07:01:49;;;;;;;5.47;1.70;;;10.40;99.90;;;;;;5030804;28;20540;-83
2024/02/09 07:04:18;;;;;;;5.40;1.98;;;10.40;99.90;;;;;;5028448;28;20053;-82
2024/02/09 07:06:47;;;;;;;5.53;1.98;;;10.40;99.90;;;;;;5034969;28;20028;-82
2024/02/09 07:09:17;;;;;;;7.97;2.17;;;10.40;99.90;;;;;;5036379;28;20048;-83
2024/02/09 07:11:47;;;;;;;6.47;1.55;;;10.40;99.90;;;;;;5034892;28;20442;-83
2024/02/09 07:14:17;;;;;;;6.47;1.70;;;10.40;99.90;;;;;;5035544;28;20041;-85
2024/02/09 07:16:46;;;;;;;8.55;1.77;;;10.40;99.90;;;;;;5032636;28;20045;-81
2024/02/09 07:19:13;;;;;;;7.28;2.22;;;10.40;99.90;;;;;;5024901;28;20028;-84
2024/02/09 07:21:41;;;;;;;8.45;1.55;;;10.40;99.90;;;;;;5026414;28;20044;-85
2024/02/09 07:24:08;;;;;;;6.32;2.05;;;10.40;99.90;;;;;;5022326;28;20091;-83
2024/02/09 07:26:35;;;;;;;8.07;2.10;;;10.40;99.90;;;;;;5024705;28;20070;-84
2024/02/09 07:29:00;;;;;;;10.23;2.20;;;10.40;99.90;;;;;;5048406;28;20148;-84
2024/02/09 07:31:26;;;;;;;8.80;1.67;;;10.40;99.90;;;;;;5034375;28;20076;-85
2024/02/09 07:33:53;;;;;;;8.13;2.22;;;10.40;99.90;;;;;;5032125;28;20030;-83
2024/02/09 07:36:20;;;;;;;6.50;1.80;;;10.40;99.90;;;;;;5035214;28;20022;-83
2024/02/09 07:38:47;;;;;;;7.47;1.80;;;10.50;99.90;;;;;;5035337;28;20025;-84
2024/02/09 07:41:19;;;;;;;6.30;2.10;;;10.50;99.90;;;;;;5034726;28;20505;-83
2024/02/09 07:43:48;;;;;;;9.32;2.08;;;10.50;99.90;;;;;;5036453;28;20266;-84
2024/02/09 07:46:15;;;;;;;9.55;2.92;;;10.50;99.90;;;;;;5036295;28;20093;-85
2024/02/09 07:48:43;;;;;;;6.82;2.15;;;10.50;99.90;;;;;;5034213;28;20018;-84
2024/02/09 07:51:08;;;;;;;4.75;2.20;;;10.40;99.90;;;;;;5035704;28;20030;-87
2024/02/09 07:53:35;;;;;;;6.35;3.00;;;10.40;99.90;;;;;;5033783;28;20047;-86
2024/02/09 07:56:02;;;;;;;6.47;2.42;;;10.40;99.90;;;;;;5034315;28;20080;-88
2024/02/09 07:58:28;;;;;;;7.60;2.30;;;10.40;99.90;;;;;;5034247;28;20060;-87
2024/02/09 08:00:53;;;;;;;7.45;2.60;;;10.40;99.90;;;;;;5033909;28;20049;-86
2024/02/09 08:03:23;;;;;;;7.18;2.47;;;10.30;99.90;;;;;;5035709;28;20433;-88
2024/02/09 08:05:48;;;;;;;7.43;2.60;;;10.30;99.90;;;;;;5035052;28;20478;-85
2024/02/09 08:08:14;;;;;;;11.75;2.80;;;10.30;99.90;;;;;;5034782;28;20109;-84
2024/02/09 08:10:40;;;;;;;7.38;3.10;;;10.30;99.90;;;;;;5033753;28;20082;-86
2024/02/09 08:13:08;;;;;;;6.67;2.67;;;10.30;99.90;;;;;;5034583;28;20044;-85
2024/02/09 08:15:34;;;;;;;8.68;2.28;;;10.30;99.90;;;;;;5035471;28;20052;-85
2024/02/09 08:18:00;;;;;;;11.23;2.97;;;10.30;99.90;;;;;;5027301;28;20171;-85
2024/02/09 08:20:26;;;;;;;9.95;3.15;;;10.30;99.90;;;;;;5024624;28;20075;-87
2024/02/09 08:22:53;;;;;;;9.70;2.93;;;10.30;99.90;;;;;;5022430;28;20113;-84
2024/02/09 08:25:19;;;;;;;10.20;2.80;;;10.30;99.90;;;;;;5025112;28;20539;-84
2024/02/09 08:27:45;;;;;;;6.68;2.60;;;10.30;99.90;;;;;;5023740;28;20022;-88
2024/02/09 08:30:12;;;;;;;11.48;2.80;;;10.30;99.90;;;;;;5023823;28;20204;-86
2024/02/09 08:32:39;;;;;;;10.45;3.10;;;10.30;99.90;;;;;;5025088;28;20052;-87
2024/02/09 08:35:06;;;;;;;10.07;2.90;;;10.40;99.90;;;;;;5021162;28;20025;-84
2024/02/09 08:37:32;;;;;;;11.27;3.53;;;10.40;99.90;;;;;;5025592;28;20022;-85
2024/02/09 08:39:58;;;;;;;11.77;3.08;;;10.40;99.90;;;;;;5023553;28;20029;-84
2024/02/09 08:42:24;;;;;;;11.68;3.60;;;10.40;99.90;;;;;;5023124;28;20052;-84
2024/02/09 08:44:51;;;;;;;8.35;3.53;;;10.50;99.90;;;;;;5025531;28;20026;-83
2024/02/09 08:47:16;;;;;;;7.97;2.88;;;10.50;99.90;;;;;;5026142;28;20095;-84
2024/02/09 08:49:43;;;;;;;9.13;3.75;;;10.50;99.90;;;;;;5024340;28;20018;-85
2024/02/09 08:52:10;;;;;;;7.28;2.92;;;10.50;99.90;;;;;;5021977;28;20017;-88
2024/02/09 08:54:35;;;;;;;10.07;2.65;;;10.60;99.90;;;;;;5031304;28;20157;-86
2024/02/09 08:57:01;;;;;;;8.68;3.25;;;10.70;99.90;;;;;;5026966;28;20073;-85
2024/02/09 08:59:27;;;;;;;8.43;2.92;;;10.70;99.90;;;;;;5033722;28;20524;-87
2024/02/09 09:01:53;;;;;;;12.40;3.08;;;10.70;99.90;;;;;;5034151;28;20061;-84
2024/02/09 09:04:19;;;;;;;11.63;3.78;;;10.80;99.90;;;;;;5034736;28;20025;-84
2024/02/09 09:06:45;;;;;;;6.22;2.63;;;10.80;99.90;;;;;;5033636;28;20025;-87
2024/02/09 09:09:14;;;;;;;11.60;2.92;;;10.80;99.90;;;;;;5033313;28;20101;-84
2024/02/09 09:11:41;;;;;;;11.02;3.30;;;10.90;99.90;;;;;;5033899;28;20500;-90
2024/02/09 09:14:08;;;;;;;8.02;2.42;;;10.90;99.90;;;;;;5033086;28;20029;-84
2024/02/09 09:16:34;;;;;;;11.88;3.75;;;11.00;99.90;;;;;;5032589;28;20112;-88
2024/02/09 09:19:04;;;;;;;10.75;2.53;;;11.10;99.90;;;;;;5033153;28;20057;-84
2024/02/09 09:21:30;;;;;;;9.25;2.78;;;11.20;99.90;;;;;;5034087;28;20052;-87
2024/02/09 09:23:56;;;;;;;7.40;2.67;;;11.20;99.90;;;;;;5034044;28;20018;-82
2024/02/09 09:26:21;;;;;;;8.98;3.53;;;11.30;99.90;;;;;;5029755;28;20025;-84
2024/02/09 09:28:48;;;;;;;13.15;3.53;;;11.40;99.90;;;;;;5021299;28;20018;-82
2024/02/09 09:31:14;;;;;;;7.03;2.67;;;11.40;99.90;;;;;;5021263;28;20028;-84
2024/02/09 09:33:40;;;;;;;7.72;2.47;;;11.50;99.90;;;;;;5025284;28;20389;-83
2024/02/09 09:36:06;;;;;;;8.73;2.70;;;11.40;99.90;;;;;;5030259;28;20489;-85
2024/02/09 09:38:32;;;;;;;6.90;2.65;;;11.40;99.90;;;;;;5032236;28;20033;-85
2024/02/09 09:40:58;;;;;;;10.05;3.03;;;11.40;99.90;;;;;;5034022;28;20021;-84
2024/02/09 09:43:24;;;;;;;5.78;1.90;;;11.40;99.90;;;;;;5033731;28;20099;-84
2024/02/09 09:45:56;;;;;;;8.38;2.80;;;11.40;99.90;;;;;;5033670;28;20025;-86
2024/02/09 09:48:24;;;;;;;7.85;2.38;;;11.30;99.90;;;;;;5026489;28;20026;-88
2024/02/09 09:50:51;;;;;;;7.28;2.60;;;11.30;99.90;;;;;;5022071;28;20049;-84
2024/02/09 09:53:27;;;;;;;9.02;2.50;;;11.30;99.90;;;;;;5023222;28;20025;-85
2024/02/09 09:55:53;;;;;;;9.98;2.58;;;11.30;99.90;;;;;;5025136;28;20024;-86
2024/02/09 09:58:20;;;;;;;10.23;2.65;;;11.30;99.90;;;;;;5031886;28;20053;-85
2024/02/09 10:00:48;;;;;;;9.15;2.65;;;11.30;99.90;;;;;;5031929;28;20443;-84
2024/02/09 10:03:14;;;;;;;6.55;2.47;;;11.40;99.90;;;;;;5032005;28;20026;-82
2024/02/09 10:05:40;;;;;;;6.80;2.33;;;11.40;99.90;;;;;;5033355;28;20104;-84
2024/02/09 10:08:10;;;;;;;9.57;2.53;;;11.40;99.90;;;;;;5033143;28;20097;-86
2024/02/09 10:10:37;;;;;;;8.55;2.80;;;11.40;99.90;;;;;;5033235;28;20064;-81
2024/02/09 10:13:11;;;;;;;8.38;2.33;;;11.50;99.90;;;;;;5033068;28;20028;-88
2024/02/09 10:15:47;;;;;;;9.25;2.55;;;11.60;99.90;;;;;;5032102;28;20026;-84
2024/02/09 10:18:13;;;;;;;5.20;1.80;;;11.70;99.90;;;;;;5034660;28;20028;-84
2024/02/09 10:20:40;;;;;;;5.75;1.65;;;11.80;99.90;;;;;;5036464;28;20026;-84
2024/02/09 10:23:06;;;;;;;5.88;2.00;;;11.90;99.90;;;;;;5036068;28;20060;-85
2024/02/09 10:25:32;;;;;;;6.75;1.90;;;12.00;99.90;;;;;;5035586;28;20056;-83
2024/02/09 10:27:59;;;;;;;8.43;1.90;;;12.00;99.90;;;;;;5035627;28;20589;-85
2024/02/09 10:30:27;;;;;;;6.65;2.03;;;12.10;99.90;;;;;;5036915;28;20116;-85
2024/02/09 10:32:52;;;;;;;6.25;1.83;;;12.10;99.90;;;;;;5035388;28;20087;-83
2024/02/09 10:35:19;;;;;;;7.07;2.13;;;12.10;99.90;;;;;;5036626;28;20108;-84
2024/02/09 10:37:44;;;;;;;6.85;1.98;;;12.00;99.90;;;;;;5035151;28;20014;-84
2024/02/09 10:40:11;;;;;;;8.10;1.63;;;12.10;99.90;;;;;;5036569;28;20021;-83
2024/02/09 10:42:43;;;;;;;7.88;1.92;;;12.10;99.90;;;;;;5036498;28;20159;-83
2024/02/09 10:45:08;;;;;;;6.43;2.65;;;12.10;99.90;;;;;;5036496;28;20047;-83
2024/02/09 10:47:37;;;;;;;7.35;1.73;;;12.20;99.90;;;;;;5030573;28;20044;-83
2024/02/09 10:50:05;;;;;;;6.75;2.05;;;12.20;99.90;;;;;;5026194;28;20025;-82
2024/02/09 10:52:35;;;;;;;4.97;1.88;;;12.20;99.90;;;;;;5021155;28;20088;-83
2024/02/09 10:55:04;;;;;;;6.28;1.73;;;12.20;99.90;;;;;;5016403;28;20481;-82
2024/02/09 10:57:33;;;;;;;6.95;1.73;;;12.20;99.90;;;;;;5018062;28;20026;-84
2024/02/09 11:00:00;;;;;;;7.80;2.25;;;12.30;99.90;;;;;;5020946;28;20036;-84
2024/02/09 11:02:29;;;;;;;6.93;2.08;;;12.30;99.90;;;;;;5022863;28;20064;-83
2024/02/09 11:04:58;;;;;;;6.15;1.55;;;12.40;99.90;;;;;;5026102;28;20139;-86
2024/02/09 11:07:25;;;;;;;5.88;1.98;;;12.50;99.90;;;;;;5025924;28;20094;-85
2024/02/09 11:09:51;;;;;;;8.65;1.83;;;12.60;99.90;;;;;;5028171;28;20022;-84
2024/02/09 11:12:19;;;;;;;10.82;2.45;;;12.60;99.90;;;;;;5027204;28;20022;-84
2024/02/09 11:14:45;;;;;;;8.48;1.67;;;12.60;99.90;;;;;;5025889;28;20025;-83
2024/02/09 11:17:14;;;;;;;10.07;1.80;;;12.50;99.90;;;;;;5026678;28;20032;-83
2024/02/09 11:19:41;;;;;;;6.90;1.95;;;12.40;99.90;;;;;;5024958;28;20045;-83
2024/02/09 11:22:08;;;;;;;8.68;1.80;;;12.40;99.90;;;;;;5027225;28;20037;-84
2024/02/09 11:24:34;;;;;;;8.80;1.88;;;12.30;99.90;;;;;;5035650;28;20112;-84
2024/02/09 11:27:02;;;;;;;9.63;1.85;;;12.30;99.90;;;;;;5034842;28;20117;-84
2024/02/09 11:29:32;;;;;;;5.65;1.60;;;12.30;99.90;;;;;;5035080;28;20029;-84
2024/02/09 11:32:07;;;;;;;6.47;1.73;;;12.30;99.90;;;;;;5035701;28;20073;-84
2024/02/09 11:34:37;;;;;;;6.53;1.67;;;12.50;99.90;;;;;;5034577;28;20034;-85
2024/02/09 11:37:05;;;;;;;7.00;1.10;;;12.80;99.90;;;;;;5034544;28;20036;-85
2024/02/09 11:39:31;;;;;;;5.13;1.40;;;13.00;99.90;;;;;;5026035;28;20360;-84
2024/02/09 11:41:57;;;;;;;7.93;1.75;;;13.30;99.90;;;;;;5025989;28;20030;-84
2024/02/09 11:44:23;;;;;;;5.13;2.05;;;13.40;99.90;;;;;;5015353;28;20383;-83
2024/02/09 11:46:52;;;;;;;7.78;1.48;;;13.60;99.90;;;;;;5015448;28;20390;-84
2024/02/09 11:49:19;;;;;;;8.20;1.38;;;13.70;99.90;;;;;;5026090;28;20028;-86
2024/02/09 11:51:45;;;;;;;7.25;2.22;;;13.80;99.90;;;;;;5023833;28;20101;-81
2024/02/09 11:54:12;;;;;;;5.60;1.40;;;13.80;99.90;;;;;;5022912;28;20028;-83
2024/02/09 11:56:40;;;;;;;7.05;1.33;;;13.90;99.90;;;;;;5025913;28;20025;-83
2024/02/09 11:59:06;;;;;;;6.45;1.35;;;14.20;99.90;;;;;;5024634;28;20129;-82
2024/02/09 12:01:32;;;;;;;4.50;1.45;;;14.40;99.90;;;;;;5023856;28;20038;-86
2024/02/09 12:03:59;;;;;;;6.28;1.65;;;14.50;99.90;;;;;;5019502;28;20030;-84
2024/02/09 12:06:27;;;;;;;3.03;0.95;;;14.60;99.90;;;;;;5025020;28;20033;-84
2024/02/09 12:08:53;;;;;;;8.82;1.80;;;14.70;99.90;;;;;;5033941;28;20112;-82
2024/02/09 12:11:19;;;;;;;7.90;1.35;;;14.60;99.90;;;;;;5034504;28;20429;-82
2024/02/09 12:13:48;;;;;;;6.10;1.00;;;14.80;99.90;;;;;;5033642;28;20116;-82
2024/02/09 12:16:17;;;;;;;3.10;1.23;;;15.10;99.90;;;;;;5033575;28;20025;-82
2024/02/09 12:18:54;;;;;;;4.88;1.05;;;15.60;99.90;;;;;;5034970;28;20026;-82
2024/02/09 12:21:20;;;;;;;5.78;1.48;;;16.00;99.90;;;;;;5034506;28;20432;-82
2024/02/09 12:23:46;;;;;;;4.50;1.05;;;16.50;99.90;;;;;;5034518;28;20049;-82
2024/02/09 12:26:14;;;;;;;4.35;1.20;;;16.60;99.90;;;;;;5034611;28;20041;-82
2024/02/09 12:28:40;;;;;;;6.97;1.30;;;16.70;99.90;;;;;;5034393;28;20044;-82
2024/02/09 12:31:06;;;;;;;2.42;0.95;;;16.70;99.90;;;;;;5034710;28;20030;-83
2024/02/09 12:33:35;;;;;;;5.07;1.48;;;16.70;99.90;;;;;;5034410;28;20034;-82
2024/02/09 12:36:05;;;;;;;5.03;1.40;;;16.60;99.90;;;;;;5033246;28;20071;-82
2024/02/09 12:38:31;;;;;;;6.38;0.95;;;16.50;99.90;;;;;;5034226;28;20025;-82
2024/02/09 12:40:57;;;;;;;3.80;1.20;;;16.30;99.80;;;;;;5033332;28;20034;-82
2024/02/09 12:43:23;;;;;;;3.80;0.93;;;16.20;99.20;;;;;;5034192;28;20021;-81
2024/02/09 12:45:49;;;;;;;4.18;1.15;;;16.00;98.30;;;;;;5034137;28;20021;-82
2024/02/09 12:48:18;;;;;;;5.43;1.33;;;15.80;97.80;;;;;;5033922;28;20100;-81
2024/02/09 12:50:44;;;;;;;3.83;1.27;;;15.60;97.60;;;;;;5032921;28;20493;-82
2024/02/09 12:53:09;;;;;;;7.97;1.00;;;15.40;97.80;;;;;;5033850;28;20060;-82
2024/02/09 12:55:35;;;;;;;5.78;0.90;;;15.30;97.80;;;;;;5033965;28;20026;-82
2024/02/09 12:58:01;;;;;;;7.82;1.30;;;15.10;97.60;;;;;;5033442;28;20049;-82
2024/02/09 13:00:27;;;;;;;4.55;1.00;;;14.90;97.90;;;;;;5034055;28;20090;-83
2024/02/09 13:02:53;;;;;;;9.73;1.73;;;14.80;98.30;;;;;;5034049;28;20492;-83
2024/02/09 13:05:19;;;;;;;5.60;0.93;;;14.70;97.90;;;;;;5027132;28;20022;-83
2024/02/09 13:07:45;;;;;;;4.55;1.00;;;14.60;98.00;;;;;;5029373;28;20028;-82
2024/02/09 13:10:11;;;;;;;10.43;1.38;;;14.60;98.30;;;;;;5032644;28;20025;-83
2024/02/09 13:12:37;;;;;;;7.90;1.40;;;14.50;98.60;;;;;;5033342;28;20498;-83
2024/02/09 13:15:10;;;;;;;4.78;1.27;;;14.40;99.00;;;;;;5023012;28;20466;-83
2024/02/09 13:17:37;;;;;;;9.18;1.30;;;14.40;99.20;;;;;;5027077;28;20014;-83
2024/02/09 13:20:08;;;;;;;3.00;1.05;;;14.40;99.30;;;;;;5032408;28;20544;-83
2024/02/09 13:22:35;;;;;;;5.72;1.13;;;14.40;99.60;;;;;;5032347;28;20032;-82
2024/02/09 13:25:00;;;;;;;6.25;1.08;;;14.40;99.60;;;;;;5032027;28;20111;-83
2024/02/09 13:27:29;;;;;;;4.95;1.05;;;14.40;99.70;;;;;;5032416;28;20505;-83
2024/02/09 13:29:55;;;;;;;5.25;1.20;;;14.30;99.70;;;;;;5033756;28;20488;-83
2024/02/09 13:32:21;;;;;;;7.45;1.10;;;14.20;99.60;;;;;;5032360;28;20024;-82
2024/02/09 13:34:47;;;;;;;6.07;1.13;;;14.20;99.90;;;;;;5032890;28;20405;-82
2024/02/09 13:37:12;;;;;;;3.65;0.90;;;14.20;99.90;;;;;;5033039;28;20026;-82
2024/02/09 13:39:38;;;;;;;3.47;0.90;;;14.10;99.90;;;;;;5021632;28;20359;-82
2024/02/09 13:42:04;;;;;;;10.13;1.15;;;14.10;99.90;;;;;;5013484;28;20118;-83
2024/02/09 13:44:29;;;;;;;6.40;1.20;;;14.10;99.90;;;;;;5014549;28;20101;-82
2024/02/09 13:46:55;;;;;;;7.50;1.58;;;14.10;99.90;;;;;;5022262;28;20080;-82
2024/02/09 13:49:21;;;;;;;5.97;1.00;;;14.10;99.90;;;;;;5027035;28;20048;-82
2024/02/09 13:51:47;;;;;;;5.30;1.10;;;14.00;99.90;;;;;;5011892;28;20036;-83
2024/02/09 13:54:13;;;;;;;5.45;1.50;;;14.00;99.90;;;;;;5013466;28;20022;-83
2024/02/09 13:56:38;;;;;;;4.70;1.02;;;14.00;99.90;;;;;;5011918;28;20474;-82
2024/02/09 13:59:05;;;;;;;7.50;1.52;;;14.00;99.90;;;;;;5013024;28;20100;-84
2024/02/09 14:01:30;;;;;;;4.18;1.15;;;14.00;99.90;;;;;;5012255;28;20052;-83
2024/02/09 14:03:56;;;;;;;6.20;1.17;;;14.00;99.90;;;;;;5013419;28;20108;-83
2024/02/09 14:06:22;;;;;;;5.18;1.10;;;14.00;99.90;;;;;;5013113;28;20139;-83
2024/02/09 14:08:49;;;;;;;6.00;1.08;;;13.90;99.90;;;;;;5012067;28;20022;-83
2024/02/09 14:11:15;;;;;;;3.97;1.23;;;14.00;99.90;;;;;;5012473;28;20124;-84
2024/02/09 14:13:42;;;;;;;5.95;1.35;;;14.00;99.90;;;;;;5012355;28;20037;-83
2024/02/09 14:16:08;;;;;;;7.45;1.50;;;14.00;99.90;;;;;;5013453;28;20033;-82
2024/02/09 14:18:34;;;;;;;6.53;1.27;;;14.00;99.90;;;;;;5011906;28;20394;-85
2024/02/09 14:21:06;;;;;;;5.85;1.75;;;14.00;99.90;;;;;;5011780;28;20109;-84
2024/02/09 14:23:33;;;;;;;6.75;1.80;;;13.90;99.90;;;;;;5012068;28;20018;-84
2024/02/09 14:25:59;;;;;;;3.85;1.20;;;13.90;99.90;;;;;;5011647;28;20049;-82
2024/02/09 14:28:25;;;;;;;6.70;1.48;;;13.90;99.90;;;;;;5013154;28;20022;-82
2024/02/09 14:30:51;;;;;;;4.57;1.40;;;13.90;99.90;;;;;;5012892;28;20478;-82